Weather at Dublin Airport

Public forecast

Using degrees Celsius for public forecast. Weather courtesy of forecast.io.

Current aviation weather report (METAR) for Dublin Airport

Retrieved 2021/05/17 23:00 UTC (17 minutes ago):

EIDW 172300Z 25005KT 210V280 9999 FEW030 BKN050 08/06 Q1010 NOSIG

Aviation forecast (TAF) for Dublin Airport

Retrieved 2021/05/17 18:11 UTC (5 hours ago):

TAF EIDW 171700Z 1718/1818 24008KT 9999 FEW020 BKN040 TEMPO 1718/1723 29006KT TEMPO 1718/1720 -SHRA SCT020CB BECMG 1804/1806 VRB03KT BECMG 1808/1810 14007KT TEMPO 1812/1818 -SHRA SCT020CB PROB30 TEMPO 1814/1818 4000 SHRA